Vasiliy Bozhenko — URHP — position and weather

sailwx.info

Track history (hours):
 
Tides and Currents Weather Stations Pressure Air Temp Water Temp Dewpoint Dewpoint Depression Visibility Wind Speed Wind Dir Waves Ship Positions

Vasiliy Bozhenko

Last reported at 2014-Dec-06 08:33 UTC. Time now 2014-Dec-21 03:23 UTC.
Position N 47°43' E 035°08'.
Warning: this ship's position is 14 days out of date.

Length 114 m; draft 2.8 m.

Type: Cargo ship. MMSI: 272085000.

Date/timePositionNaut miles runAvg speedWind from/ knotsBaromVisibWave heightAir tempDewpointWater temp
2014-Dec-06 08:33N 47°43' E 035°08'7 6.8
2014-Dec-06 07:34N 47°49' E 035°07'3 2.7
2014-Dec-06 06:33N 47°52' E 035°06'1 0.7
2014-Dec-06 05:33N 47°52' E 035°06'0 0.0
2014-Dec-06 04:33N 47°52' E 035°06'0 0.0
2014-Dec-06 03:34N 47°52' E 035°06'0 0.0
2014-Dec-06 02:33N 47°52' E 035°06'0 0.0
2014-Dec-06 01:34N 47°52' E 035°06'0 0.0
2014-Dec-06 00:33N 47°52' E 035°06'0 0.0
2014-Dec-05 23:33N 47°52' E 035°06'0 0.0
2014-Dec-05 22:34N 47°52' E 035°06'0 0.0
2014-Dec-05 21:33N 47°52' E 035°06'0 0.0
2014-Dec-05 20:33N 47°52' E 035°06'0 0.0
2014-Dec-05 19:33N 47°52' E 035°06'0 0.0
2014-Dec-05 18:34N 47°52' E 035°06'0 0.0
2014-Dec-05 17:33N 47°52' E 035°06'0 0.0
2014-Dec-05 16:34N 47°52' E 035°06'0 0.0
2014-Dec-05 15:33N 47°52' E 035°06'0 0.0
2014-Dec-05 14:34N 47°52' E 035°06'0 0.0
2014-Dec-05 13:33N 47°52' E 035°06'0 0.0
2014-Dec-05 12:33N 47°52' E 035°06'0 0.0
2014-Dec-05 11:33N 47°52' E 035°06'1 0.6
2014-Dec-05 10:34N 47°53' E 035°06'9 8.3
2014-Dec-05 09:27N 48°02' E 035°08'  
2014-Dec-02 03:06N 48°02' E 035°07'4 6.8
2014-Dec-02 02:27N 47°58' E 035°07'6 6.7
2014-Dec-02 01:33N 47°52' E 035°06'1 1.3
2014-Dec-02 00:33N 47°51' E 035°05'6 5.9
2014-Dec-01 23:33N 47°45' E 035°10'146 3.8
2014-Nov-30 09:32N 46°32' E 032°05'7 7.2
2014-Nov-30 08:33N 46°34' E 031°55'7 6.8
2014-Nov-30 07:28N 46°35' E 031°44'331 6.6
2014-Nov-28 05:33N 41°22' E 029°14'26 6.5
2014-Nov-28 01:33N 40°58' E 028°59'3 2.6
2014-Nov-28 00:33N 40°58' E 028°56'0 0.1
2014-Nov-27 21:24N 40°58' E 028°56'0 0.0
2014-Nov-27 19:29N 40°58' E 028°56'0 0.0
2014-Nov-27 17:32N 40°58' E 028°56'0 0.0
2014-Nov-27 14:15N 40°58' E 028°56'3 0.2
2014-Nov-27 03:33N 40°56' E 028°57'7 6.7
2014-Nov-27 02:30N 40°50' E 028°52'  
Track history (hours):
 
Tides and Currents Weather Stations Pressure Air Temp Water Temp Dewpoint Dewpoint Depression Visibility Wind Speed Wind Dir Waves Ship Positions

Vasiliy Bozhenko

Last reported at 2014-Dec-06 08:33 UTC. Time now 2014-Dec-21 03:23 UTC.
Position N 47°43' E 035°08'.
Warning: this ship's position is 14 days out of date.

Length 114 m; draft 2.8 m.

Type: Cargo ship. MMSI: 272085000.

Date/timePositionNaut miles runAvg speedWind from/ knotsBaromVisibWave heightAir tempDewpointWater temp
2014-Dec-06 08:33N 47°43' E 035°08'7 6.8
2014-Dec-06 07:34N 47°49' E 035°07'3 2.7
2014-Dec-06 06:33N 47°52' E 035°06'1 0.7
2014-Dec-06 05:33N 47°52' E 035°06'0 0.0
2014-Dec-06 04:33N 47°52' E 035°06'0 0.0
2014-Dec-06 03:34N 47°52' E 035°06'0 0.0
2014-Dec-06 02:33N 47°52' E 035°06'0 0.0
2014-Dec-06 01:34N 47°52' E 035°06'0 0.0
2014-Dec-06 00:33N 47°52' E 035°06'0 0.0
2014-Dec-05 23:33N 47°52' E 035°06'0 0.0
2014-Dec-05 22:34N 47°52' E 035°06'0 0.0
2014-Dec-05 21:33N 47°52' E 035°06'0 0.0
2014-Dec-05 20:33N 47°52' E 035°06'0 0.0
2014-Dec-05 19:33N 47°52' E 035°06'0 0.0
2014-Dec-05 18:34N 47°52' E 035°06'0 0.0
2014-Dec-05 17:33N 47°52' E 035°06'0 0.0
2014-Dec-05 16:34N 47°52' E 035°06'0 0.0
2014-Dec-05 15:33N 47°52' E 035°06'0 0.0
2014-Dec-05 14:34N 47°52' E 035°06'0 0.0
2014-Dec-05 13:33N 47°52' E 035°06'0 0.0
2014-Dec-05 12:33N 47°52' E 035°06'0 0.0
2014-Dec-05 11:33N 47°52' E 035°06'1 0.6
2014-Dec-05 10:34N 47°53' E 035°06'9 8.3
2014-Dec-05 09:27N 48°02' E 035°08'  
2014-Dec-02 03:06N 48°02' E 035°07'4 6.8
2014-Dec-02 02:27N 47°58' E 035°07'6 6.7
2014-Dec-02 01:33N 47°52' E 035°06'1 1.3
2014-Dec-02 00:33N 47°51' E 035°05'6 5.9
2014-Dec-01 23:33N 47°45' E 035°10'146 3.8
2014-Nov-30 09:32N 46°32' E 032°05'7 7.2
2014-Nov-30 08:33N 46°34' E 031°55'7 6.8
2014-Nov-30 07:28N 46°35' E 031°44'331 6.6
2014-Nov-28 05:33N 41°22' E 029°14'26 6.5
2014-Nov-28 01:33N 40°58' E 028°59'3 2.6
2014-Nov-28 00:33N 40°58' E 028°56'0 0.1
2014-Nov-27 21:24N 40°58' E 028°56'0 0.0
2014-Nov-27 19:29N 40°58' E 028°56'0 0.0
2014-Nov-27 17:32N 40°58' E 028°56'0 0.0
2014-Nov-27 14:15N 40°58' E 028°56'3 0.2
2014-Nov-27 03:33N 40°56' E 028°57'7 6.7
2014-Nov-27 02:30N 40°50' E 028°52'  

Dump ship's entire track history